Shin Mei Maru — JG5617 — position and weather

sailwx.info

Track history (hours):
 
Tides and Currents Weather Stations Pressure Air Temp Water Temp Dewpoint Dewpoint Depression Visibility Wind Speed Wind Dir Waves Ship Positions

Shin Mei Maru

Last reported at 2018-Apr-21 17:53 UTC. Time now 2018-Apr-23 19:33 UTC.
Position N 41°19' E 141°47'.

Length 160 m; draft 6.7 m.

Type: Cargo ship. MMSI: 431100922.

Date/timePositionNaut miles runAvg speedWind from/ knotsBaromVisibWave heightAir tempDewpointWater temp
2018-Apr-21 17:53N 41°19' E 141°47'36015.4
2018-Apr-20 18:27N 35°22' E 140°44'817.6
2018-Apr-20 17:58N 35°16' E 140°37'1317.7
2018-Apr-20 17:14N 35°05' E 140°27'417.5
2018-Apr-20 17:00N 35°03' E 140°23'917.4
2018-Apr-20 16:29N 34°59' E 140°13'817.1
2018-Apr-20 16:00N 34°55' E 140°05'1015.9
2018-Apr-20 15:24N 34°51' E 139°54'616.0
2018-Apr-20 15:00N 34°53' E 139°46'816.0
2018-Apr-20 14:30N 35°00' E 139°42'917.7
2018-Apr-20 14:01N 35°09' E 139°45'714.9
2018-Apr-20 13:30N 35°16' E 139°45'714.3
2018-Apr-20 13:01N 35°23' E 139°42'918.2
2018-Apr-20 12:31N 35°29' E 139°50'714.5
2018-Apr-20 12:00N 35°36' E 139°47'2 4.7
2018-Apr-20 11:30N 35°38' E 139°46'0 0.0
2018-Apr-20 10:54N 35°38' E 139°46'0 0.0
2018-Apr-20 10:27N 35°38' E 139°46'0 0.0
2018-Apr-20 10:00N 35°38' E 139°46'0 0.0
2018-Apr-20 09:30N 35°38' E 139°46'0 0.0
2018-Apr-20 08:54N 35°38' E 139°46'0 0.0
2018-Apr-20 08:27N 35°38' E 139°46'0 0.0
2018-Apr-20 07:57N 35°38' E 139°46'0 0.0
2018-Apr-20 07:30N 35°38' E 139°46'0 0.0
2018-Apr-20 07:00N 35°38' E 139°46'0 0.0
2018-Apr-20 06:30N 35°38' E 139°46'0 0.0
2018-Apr-20 05:57N 35°38' E 139°46'0 0.0
2018-Apr-20 05:30N 35°38' E 139°46'0 0.0
2018-Apr-20 04:54N 35°38' E 139°46'0 0.0
2018-Apr-20 04:30N 35°38' E 139°46'0 0.0
2018-Apr-20 04:00N 35°38' E 139°46'0 0.0
2018-Apr-20 03:30N 35°38' E 139°46'0 0.0
2018-Apr-20 03:00N 35°38' E 139°46'0 0.0
2018-Apr-20 02:27N 35°38' E 139°46'0 0.0
2018-Apr-20 01:54N 35°38' E 139°46'0 0.0
2018-Apr-20 01:30N 35°38' E 139°46'0 0.0
2018-Apr-20 01:00N 35°38' E 139°46'0 0.0
2018-Apr-20 00:24N 35°38' E 139°46'0 0.0
2018-Apr-20 00:00N 35°38' E 139°46'0 0.0
2018-Apr-19 23:30N 35°38' E 139°46'0 0.1
2018-Apr-19 23:00N 35°38' E 139°46'611.8
2018-Apr-19 22:30N 35°33' E 139°50'714.9
2018-Apr-19 22:01N 35°26' E 139°48'713.9
2018-Apr-19 21:30N 35°20' E 139°44'612.0
2018-Apr-19 21:00N 35°14' E 139°47'815.9
2018-Apr-19 20:30N 35°06' E 139°46'917.7
2018-Apr-19 20:00N 34°58' E 139°43'816.5
2018-Apr-19 19:30N 34°51' E 139°49'916.1
2018-Apr-19 18:59N 34°53' E 139°59'714.8
2018-Apr-19 18:31N 34°57' E 140°06'713.4
2018-Apr-19 18:00N 34°58' E 140°14'815.0
2018-Apr-19 17:29N 35°01' E 140°23'814.6
2018-Apr-19 16:56N 35°07' E 140°30'1015.0
2018-Apr-19 16:14N 35°15' E 140°38'36515.7
2018-Apr-18 17:02N 41°17' E 141°43'617.1
2018-Apr-18 16:41N 41°23' E 141°41'317.6
2018-Apr-18 16:30N 41°26' E 141°40'1117.9
2018-Apr-18 15:53N 41°37' E 141°37'717.4
2018-Apr-18 15:30N 41°44' E 141°37'16 0.8
2018-Apr-17 18:38N 41°60' E 141°37'717.6
2018-Apr-17 18:13N 41°53' E 141°38'413.3
2018-Apr-17 17:53N 41°50' E 141°42'816.7
2018-Apr-17 17:24N 41°42' E 141°43'1017.5
2018-Apr-17 16:49N 41°31' E 141°44'617.2
2018-Apr-17 16:29N 41°26' E 141°44'2216.8
2018-Apr-17 15:11N 41°04' E 141°48'416.7
2018-Apr-17 14:55N 40°60' E 141°49'36116.7
2018-Apr-16 17:17N 35°04' E 140°25'618.2
2018-Apr-16 16:58N 35°01' E 140°19'817.6
2018-Apr-16 16:29N 34°57' E 140°10'917.9
2018-Apr-16 16:00N 34°53' E 140°01'917.4
2018-Apr-16 15:30N 34°51' E 139°51'815.4
2018-Apr-16 15:00N 34°55' E 139°43'917.6
2018-Apr-16 14:31N 35°04' E 139°43'918.4
2018-Apr-16 14:01N 35°13' E 139°46'612.8
2018-Apr-16 13:31N 35°19' E 139°43'815.1
2018-Apr-16 13:00N 35°26' E 139°46'816.2
2018-Apr-16 12:31N 35°33' E 139°50'612.2
2018-Apr-16 12:00N 35°38' E 139°46'0 0.2
2018-Apr-16 11:27N 35°38' E 139°46'0 0.0
2018-Apr-16 10:48N 35°38' E 139°46'0 0.0
2018-Apr-16 10:30N 35°38' E 139°46'0 0.0
2018-Apr-16 09:57N 35°38' E 139°46'0 0.0
2018-Apr-16 09:18N 35°38' E 139°46'0 0.0
2018-Apr-16 08:51N 35°38' E 139°46'0 0.0
2018-Apr-16 08:24N 35°38' E 139°46'0 0.0
2018-Apr-16 07:51N 35°38' E 139°46'0 0.0
2018-Apr-16 07:21N 35°38' E 139°46'0 0.0
2018-Apr-16 07:00N 35°38' E 139°46'0 0.0
2018-Apr-16 06:30N 35°38' E 139°46'0 0.0
2018-Apr-16 06:00N 35°38' E 139°46'0 0.0
2018-Apr-16 05:30N 35°38' E 139°46'0 0.0
2018-Apr-16 05:00N 35°38' E 139°46'0 0.0
2018-Apr-16 04:24N 35°38' E 139°46'0 0.0
2018-Apr-16 04:00N 35°38' E 139°46'0 0.0
2018-Apr-16 03:27N 35°38' E 139°46'0 0.0
2018-Apr-16 03:00N 35°38' E 139°46'0 0.0
2018-Apr-16 02:30N 35°38' E 139°46'0 0.0
2018-Apr-16 02:00N 35°38' E 139°46'0 0.0
2018-Apr-16 01:30N 35°38' E 139°46'0 0.0
2018-Apr-16 00:51N 35°38' E 139°46'0 0.0
2018-Apr-16 00:30N 35°38' E 139°46'0 0.0
2018-Apr-15 23:54N 35°38' E 139°46'0 0.0
2018-Apr-15 23:30N 35°38' E 139°46'1 1.1
2018-Apr-15 23:00N 35°37' E 139°46'612.4
2018-Apr-15 22:30N 35°33' E 139°51'815.1
2018-Apr-15 22:00N 35°26' E 139°48'612.5
2018-Apr-15 21:30N 35°20' E 139°45'611.1
2018-Apr-15 21:00N 35°15' E 139°47'612.1
2018-Apr-15 20:30N 35°09' E 139°47'816.0
2018-Apr-15 20:00N 35°01' E 139°44'815.9
2018-Apr-15 19:30N 34°53' E 139°47'914.7
2018-Apr-15 18:52N 34°52' E 139°58'615.6
2018-Apr-15 18:30N 34°54' E 140°04'714.8
2018-Apr-15 18:00N 34°58' E 140°12'2 3.5
2018-Apr-15 17:30N 34°56' E 140°12'4 7.1
2018-Apr-15 17:00N 34°59' E 140°15'713.9
2018-Apr-15 16:28N 35°03' E 140°23'37814.4
2018-Apr-14 14:14N 41°15' E 141°45'716.8
2018-Apr-14 13:49N 41°22' E 141°43'816.8
2018-Apr-14 13:21N 41°30' E 141°42'616.4
2018-Apr-14 12:58N 41°36' E 141°42'916.1
2018-Apr-14 12:23N 41°45' E 141°41'390 9.3
2018-Apr-12 18:36N 35°18' E 140°39'916.7
2018-Apr-12 18:03N 35°10' E 140°33'717.5
2018-Apr-12 17:39N 35°05' E 140°27'317.1
2018-Apr-12 17:27N 35°02' E 140°24'816.9
2018-Apr-12 17:00N 34°59' E 140°16'917.5
2018-Apr-12 16:30N 34°55' E 140°06'1019.3
2018-Apr-12 15:59N 34°51' E 139°56'917.6
2018-Apr-12 15:30N 34°50' E 139°45'917.9
2018-Apr-12 15:00N 34°58' E 139°42'918.1
2018-Apr-12 14:30N 35°07' E 139°44'816.0
2018-Apr-12 14:00N 35°15' E 139°46'613.1
2018-Apr-12 13:31N 35°21' E 139°42'917.5
2018-Apr-12 13:00N 35°28' E 139°49'713.7
2018-Apr-12 12:30N 35°35' E 139°48'4 7.1
2018-Apr-12 12:01N 35°38' E 139°46'0 0.0
2018-Apr-12 11:29N 35°38' E 139°46'0 0.0
2018-Apr-12 10:50N 35°38' E 139°46'0 0.0
2018-Apr-12 10:26N 35°38' E 139°46'0 0.0
2018-Apr-12 09:35N 35°38' E 139°46'0 0.0
2018-Apr-12 09:23N 35°38' E 139°46'0 0.0
2018-Apr-12 08:53N 35°38' E 139°46'0 0.0
2018-Apr-12 07:47N 35°38' E 139°46'0 0.0
2018-Apr-12 07:20N 35°38' E 139°46'0 0.0
2018-Apr-12 06:53N 35°38' E 139°46'0 0.0
2018-Apr-12 06:29N 35°38' E 139°46'0 0.0
2018-Apr-12 04:59N 35°38' E 139°46'0 0.0
2018-Apr-12 04:14N 35°38' E 139°46'0 0.0
2018-Apr-12 03:02N 35°38' E 139°46'0 0.0
2018-Apr-12 02:50N 35°38' E 139°46'0 0.0
2018-Apr-12 01:44N 35°38' E 139°46'0 0.0
2018-Apr-12 01:26N 35°38' E 139°46'0 0.0
2018-Apr-12 00:44N 35°38' E 139°46'0 0.0
2018-Apr-12 00:29N 35°38' E 139°46'0 0.0
2018-Apr-11 23:59N 35°38' E 139°46'0 0.0
2018-Apr-11 23:13N 35°38' E 139°46'0 0.4
2018-Apr-11 23:00N 35°38' E 139°46'612.8
2018-Apr-11 22:30N 35°33' E 139°51'714.8
2018-Apr-11 22:00N 35°26' E 139°48'714.0
2018-Apr-11 21:30N 35°20' E 139°44'612.4
2018-Apr-11 21:00N 35°14' E 139°47'917.2
2018-Apr-11 20:30N 35°05' E 139°46'817.0
2018-Apr-11 20:00N 34°57' E 139°44'714.2
2018-Apr-11 19:30N 34°51' E 139°48'913.1
2018-Apr-11 18:50N 34°52' E 139°59'514.6
2018-Apr-11 18:30N 34°54' E 140°04'713.6
2018-Apr-11 17:58N 34°58' E 140°12'  
Track history (hours):
 
Tides and Currents Weather Stations Pressure Air Temp Water Temp Dewpoint Dewpoint Depression Visibility Wind Speed Wind Dir Waves Ship Positions

Shin Mei Maru

Last reported at 2018-Apr-21 17:53 UTC. Time now 2018-Apr-23 19:33 UTC.
Position N 41°19' E 141°47'.

Length 160 m; draft 6.7 m.

Type: Cargo ship. MMSI: 431100922.

Date/timePositionNaut miles runAvg speedWind from/ knotsBaromVisibWave heightAir tempDewpointWater temp
2018-Apr-21 17:53N 41°19' E 141°47'36015.4
2018-Apr-20 18:27N 35°22' E 140°44'817.6
2018-Apr-20 17:58N 35°16' E 140°37'1317.7
2018-Apr-20 17:14N 35°05' E 140°27'417.5
2018-Apr-20 17:00N 35°03' E 140°23'917.4
2018-Apr-20 16:29N 34°59' E 140°13'817.1
2018-Apr-20 16:00N 34°55' E 140°05'1015.9
2018-Apr-20 15:24N 34°51' E 139°54'616.0
2018-Apr-20 15:00N 34°53' E 139°46'816.0
2018-Apr-20 14:30N 35°00' E 139°42'917.7
2018-Apr-20 14:01N 35°09' E 139°45'714.9
2018-Apr-20 13:30N 35°16' E 139°45'714.3
2018-Apr-20 13:01N 35°23' E 139°42'918.2
2018-Apr-20 12:31N 35°29' E 139°50'714.5
2018-Apr-20 12:00N 35°36' E 139°47'2 4.7
2018-Apr-20 11:30N 35°38' E 139°46'0 0.0
2018-Apr-20 10:54N 35°38' E 139°46'0 0.0
2018-Apr-20 10:27N 35°38' E 139°46'0 0.0
2018-Apr-20 10:00N 35°38' E 139°46'0 0.0
2018-Apr-20 09:30N 35°38' E 139°46'0 0.0
2018-Apr-20 08:54N 35°38' E 139°46'0 0.0
2018-Apr-20 08:27N 35°38' E 139°46'0 0.0
2018-Apr-20 07:57N 35°38' E 139°46'0 0.0
2018-Apr-20 07:30N 35°38' E 139°46'0 0.0
2018-Apr-20 07:00N 35°38' E 139°46'0 0.0
2018-Apr-20 06:30N 35°38' E 139°46'0 0.0
2018-Apr-20 05:57N 35°38' E 139°46'0 0.0
2018-Apr-20 05:30N 35°38' E 139°46'0 0.0
2018-Apr-20 04:54N 35°38' E 139°46'0 0.0
2018-Apr-20 04:30N 35°38' E 139°46'0 0.0
2018-Apr-20 04:00N 35°38' E 139°46'0 0.0
2018-Apr-20 03:30N 35°38' E 139°46'0 0.0
2018-Apr-20 03:00N 35°38' E 139°46'0 0.0
2018-Apr-20 02:27N 35°38' E 139°46'0 0.0
2018-Apr-20 01:54N 35°38' E 139°46'0 0.0
2018-Apr-20 01:30N 35°38' E 139°46'0 0.0
2018-Apr-20 01:00N 35°38' E 139°46'0 0.0
2018-Apr-20 00:24N 35°38' E 139°46'0 0.0
2018-Apr-20 00:00N 35°38' E 139°46'0 0.0
2018-Apr-19 23:30N 35°38' E 139°46'0 0.1
2018-Apr-19 23:00N 35°38' E 139°46'611.8
2018-Apr-19 22:30N 35°33' E 139°50'714.9
2018-Apr-19 22:01N 35°26' E 139°48'713.9
2018-Apr-19 21:30N 35°20' E 139°44'612.0
2018-Apr-19 21:00N 35°14' E 139°47'815.9
2018-Apr-19 20:30N 35°06' E 139°46'917.7
2018-Apr-19 20:00N 34°58' E 139°43'816.5
2018-Apr-19 19:30N 34°51' E 139°49'916.1
2018-Apr-19 18:59N 34°53' E 139°59'714.8
2018-Apr-19 18:31N 34°57' E 140°06'713.4
2018-Apr-19 18:00N 34°58' E 140°14'815.0
2018-Apr-19 17:29N 35°01' E 140°23'814.6
2018-Apr-19 16:56N 35°07' E 140°30'1015.0
2018-Apr-19 16:14N 35°15' E 140°38'36515.7
2018-Apr-18 17:02N 41°17' E 141°43'617.1
2018-Apr-18 16:41N 41°23' E 141°41'317.6
2018-Apr-18 16:30N 41°26' E 141°40'1117.9
2018-Apr-18 15:53N 41°37' E 141°37'717.4
2018-Apr-18 15:30N 41°44' E 141°37'16 0.8
2018-Apr-17 18:38N 41°60' E 141°37'717.6
2018-Apr-17 18:13N 41°53' E 141°38'413.3
2018-Apr-17 17:53N 41°50' E 141°42'816.7
2018-Apr-17 17:24N 41°42' E 141°43'1017.5
2018-Apr-17 16:49N 41°31' E 141°44'617.2
2018-Apr-17 16:29N 41°26' E 141°44'2216.8
2018-Apr-17 15:11N 41°04' E 141°48'416.7
2018-Apr-17 14:55N 40°60' E 141°49'36116.7
2018-Apr-16 17:17N 35°04' E 140°25'618.2
2018-Apr-16 16:58N 35°01' E 140°19'817.6
2018-Apr-16 16:29N 34°57' E 140°10'917.9
2018-Apr-16 16:00N 34°53' E 140°01'917.4
2018-Apr-16 15:30N 34°51' E 139°51'815.4
2018-Apr-16 15:00N 34°55' E 139°43'917.6
2018-Apr-16 14:31N 35°04' E 139°43'918.4
2018-Apr-16 14:01N 35°13' E 139°46'612.8
2018-Apr-16 13:31N 35°19' E 139°43'815.1
2018-Apr-16 13:00N 35°26' E 139°46'816.2
2018-Apr-16 12:31N 35°33' E 139°50'612.2
2018-Apr-16 12:00N 35°38' E 139°46'0 0.2
2018-Apr-16 11:27N 35°38' E 139°46'0 0.0
2018-Apr-16 10:48N 35°38' E 139°46'0 0.0
2018-Apr-16 10:30N 35°38' E 139°46'0 0.0
2018-Apr-16 09:57N 35°38' E 139°46'0 0.0
2018-Apr-16 09:18N 35°38' E 139°46'0 0.0
2018-Apr-16 08:51N 35°38' E 139°46'0 0.0
2018-Apr-16 08:24N 35°38' E 139°46'0 0.0
2018-Apr-16 07:51N 35°38' E 139°46'0 0.0
2018-Apr-16 07:21N 35°38' E 139°46'0 0.0
2018-Apr-16 07:00N 35°38' E 139°46'0 0.0
2018-Apr-16 06:30N 35°38' E 139°46'0 0.0
2018-Apr-16 06:00N 35°38' E 139°46'0 0.0
2018-Apr-16 05:30N 35°38' E 139°46'0 0.0
2018-Apr-16 05:00N 35°38' E 139°46'0 0.0
2018-Apr-16 04:24N 35°38' E 139°46'0 0.0
2018-Apr-16 04:00N 35°38' E 139°46'0 0.0
2018-Apr-16 03:27N 35°38' E 139°46'0 0.0
2018-Apr-16 03:00N 35°38' E 139°46'0 0.0
2018-Apr-16 02:30N 35°38' E 139°46'0 0.0
2018-Apr-16 02:00N 35°38' E 139°46'0 0.0
2018-Apr-16 01:30N 35°38' E 139°46'0 0.0
2018-Apr-16 00:51N 35°38' E 139°46'0 0.0
2018-Apr-16 00:30N 35°38' E 139°46'0 0.0
2018-Apr-15 23:54N 35°38' E 139°46'0 0.0
2018-Apr-15 23:30N 35°38' E 139°46'1 1.1
2018-Apr-15 23:00N 35°37' E 139°46'612.4
2018-Apr-15 22:30N 35°33' E 139°51'815.1
2018-Apr-15 22:00N 35°26' E 139°48'612.5
2018-Apr-15 21:30N 35°20' E 139°45'611.1
2018-Apr-15 21:00N 35°15' E 139°47'612.1
2018-Apr-15 20:30N 35°09' E 139°47'816.0
2018-Apr-15 20:00N 35°01' E 139°44'815.9
2018-Apr-15 19:30N 34°53' E 139°47'914.7
2018-Apr-15 18:52N 34°52' E 139°58'615.6
2018-Apr-15 18:30N 34°54' E 140°04'714.8
2018-Apr-15 18:00N 34°58' E 140°12'2 3.5
2018-Apr-15 17:30N 34°56' E 140°12'4 7.1
2018-Apr-15 17:00N 34°59' E 140°15'713.9
2018-Apr-15 16:28N 35°03' E 140°23'37814.4
2018-Apr-14 14:14N 41°15' E 141°45'716.8
2018-Apr-14 13:49N 41°22' E 141°43'816.8
2018-Apr-14 13:21N 41°30' E 141°42'616.4
2018-Apr-14 12:58N 41°36' E 141°42'916.1
2018-Apr-14 12:23N 41°45' E 141°41'390 9.3
2018-Apr-12 18:36N 35°18' E 140°39'916.7
2018-Apr-12 18:03N 35°10' E 140°33'717.5
2018-Apr-12 17:39N 35°05' E 140°27'317.1
2018-Apr-12 17:27N 35°02' E 140°24'816.9
2018-Apr-12 17:00N 34°59' E 140°16'917.5
2018-Apr-12 16:30N 34°55' E 140°06'1019.3
2018-Apr-12 15:59N 34°51' E 139°56'917.6
2018-Apr-12 15:30N 34°50' E 139°45'917.9
2018-Apr-12 15:00N 34°58' E 139°42'918.1
2018-Apr-12 14:30N 35°07' E 139°44'816.0
2018-Apr-12 14:00N 35°15' E 139°46'613.1
2018-Apr-12 13:31N 35°21' E 139°42'917.5
2018-Apr-12 13:00N 35°28' E 139°49'713.7
2018-Apr-12 12:30N 35°35' E 139°48'4 7.1
2018-Apr-12 12:01N 35°38' E 139°46'0 0.0
2018-Apr-12 11:29N 35°38' E 139°46'0 0.0
2018-Apr-12 10:50N 35°38' E 139°46'0 0.0
2018-Apr-12 10:26N 35°38' E 139°46'0 0.0
2018-Apr-12 09:35N 35°38' E 139°46'0 0.0
2018-Apr-12 09:23N 35°38' E 139°46'0 0.0
2018-Apr-12 08:53N 35°38' E 139°46'0 0.0
2018-Apr-12 07:47N 35°38' E 139°46'0 0.0
2018-Apr-12 07:20N 35°38' E 139°46'0 0.0
2018-Apr-12 06:53N 35°38' E 139°46'0 0.0
2018-Apr-12 06:29N 35°38' E 139°46'0 0.0
2018-Apr-12 04:59N 35°38' E 139°46'0 0.0
2018-Apr-12 04:14N 35°38' E 139°46'0 0.0
2018-Apr-12 03:02N 35°38' E 139°46'0 0.0
2018-Apr-12 02:50N 35°38' E 139°46'0 0.0
2018-Apr-12 01:44N 35°38' E 139°46'0 0.0
2018-Apr-12 01:26N 35°38' E 139°46'0 0.0
2018-Apr-12 00:44N 35°38' E 139°46'0 0.0
2018-Apr-12 00:29N 35°38' E 139°46'0 0.0
2018-Apr-11 23:59N 35°38' E 139°46'0 0.0
2018-Apr-11 23:13N 35°38' E 139°46'0 0.4
2018-Apr-11 23:00N 35°38' E 139°46'612.8
2018-Apr-11 22:30N 35°33' E 139°51'714.8
2018-Apr-11 22:00N 35°26' E 139°48'714.0
2018-Apr-11 21:30N 35°20' E 139°44'612.4
2018-Apr-11 21:00N 35°14' E 139°47'917.2
2018-Apr-11 20:30N 35°05' E 139°46'817.0
2018-Apr-11 20:00N 34°57' E 139°44'714.2
2018-Apr-11 19:30N 34°51' E 139°48'913.1
2018-Apr-11 18:50N 34°52' E 139°59'514.6
2018-Apr-11 18:30N 34°54' E 140°04'713.6
2018-Apr-11 17:58N 34°58' E 140°12'  

Dump ship's entire track history